Terminal Aerodrome Forecast
Issued by NWS Wilmington, OH

Home | Current Version | Previous Version | Text Only | Print | Product List | Glossary On
Versions: 1 2 3 4 5 6 7 8 9 10 11 12 13 14 15 16 17 18 19 20 21 22 23 24 25
000
FTUS41 KILN 301700
TAFCVG
TAF
KCVG 301720Z 3018/3124 27012G20KT P6SM SCT050
     FM302200 22010KT P6SM BKN150
     FM311200 23012G20KT P6SM FEW080
     FM311500 27014G24KT P6SM FEW050
     FM312200 31014KT P6SM FEW050=

USA.gov is the U.S. government's official web portal to all federal, state and local government web resources and services.